sensor_id;sensor_type;location;lat;lon;timestamp;pressure;altitude;pressure_sealevel;temperature;humidity
43770;BME280;6597;52.218;9.882;2023-07-31T00:02:12;100210.34;;;16.17;100.00
43770;BME280;6597;52.218;9.882;2023-07-31T00:04:38;100200.41;;;16.21;100.00
43770;BME280;6597;52.218;9.882;2023-07-31T00:07:05;100199.56;;;16.20;100.00
43770;BME280;6597;52.218;9.882;2023-07-31T00:09:32;100191.81;;;16.17;100.00
43770;BME280;6597;52.218;9.882;2023-07-31T00:12:00;100203.38;;;16.16;100.00
43770;BME280;6597;52.218;9.882;2023-07-31T00:14:26;100198.06;;;16.16;100.00
43770;BME280;6597;52.218;9.882;2023-07-31T00:16:53;100194.25;;;16.20;100.00
43770;BME280;6597;52.218;9.882;2023-07-31T00:19:19;100199.75;;;16.17;100.00
43770;BME280;6597;52.218;9.882;2023-07-31T00:21:46;100190.66;;;16.21;100.00
43770;BME280;6597;52.218;9.882;2023-07-31T00:24:12;100182.81;;;16.19;100.00
43770;BME280;6597;52.218;9.882;2023-07-31T00:26:39;100182.81;;;16.19;100.00
43770;BME280;6597;52.218;9.882;2023-07-31T00:29:07;100180.69;;;16.25;100.00
43770;BME280;6597;52.218;9.882;2023-07-31T00:31:33;100183.56;;;16.22;100.00
43770;BME280;6597;52.218;9.882;2023-07-31T00:34:00;100182.72;;;16.21;100.00
43770;BME280;6597;52.218;9.882;2023-07-31T00:36:26;100174.22;;;16.16;100.00
43770;BME280;6597;52.218;9.882;2023-07-31T00:38:53;100174.97;;;16.18;100.00
43770;BME280;6597;52.218;9.882;2023-07-31T00:41:19;100172.31;;;16.18;100.00
43770;BME280;6597;52.218;9.882;2023-07-31T00:43:47;100162.69;;;16.17;100.00
43770;BME280;6597;52.218;9.882;2023-07-31T00:46:15;100157.41;;;16.17;100.00
43770;BME280;6597;52.218;9.882;2023-07-31T00:48:42;100151.97;;;16.06;100.00
43770;BME280;6597;52.218;9.882;2023-07-31T00:51:10;100164.16;;;16.08;100.00
43770;BME280;6597;52.218;9.882;2023-07-31T00:53:36;100164.06;;;16.10;100.00
43770;BME280;6597;52.218;9.882;2023-07-31T00:56:03;100165.22;;;16.06;100.00
43770;BME280;6597;52.218;9.882;2023-07-31T00:58:30;100162.78;;;16.03;100.00
43770;BME280;6597;52.218;9.882;2023-07-31T01:00:57;100156.00;;;15.99;100.00
43770;BME280;6597;52.218;9.882;2023-07-31T01:03:26;100159.88;;;15.93;100.00
43770;BME280;6597;52.218;9.882;2023-07-31T01:06:10;100164.53;;;15.90;100.00
43770;BME280;6597;52.218;9.882;2023-07-31T01:08:44;100153.09;;;15.89;100.00
43770;BME280;6597;52.218;9.882;2023-07-31T01:11:15;100152.34;;;15.87;100.00
43770;BME280;6597;52.218;9.882;2023-07-31T01:13:43;100146.97;;;15.88;100.00
43770;BME280;6597;52.218;9.882;2023-07-31T01:16:10;100138.91;;;15.90;100.00
43770;BME280;6597;52.218;9.882;2023-07-31T01:18:38;100134.66;;;15.87;100.00
43770;BME280;6597;52.218;9.882;2023-07-31T01:21:17;100126.00;;;15.85;100.00
43770;BME280;6597;52.218;9.882;2023-07-31T01:24:10;100119.84;;;15.85;100.00
43770;BME280;6597;52.218;9.882;2023-07-31T01:26:49;100117.50;;;15.80;100.00
43770;BME280;6597;52.218;9.882;2023-07-31T01:29:24;100111.28;;;15.81;100.00
43770;BME280;6597;52.218;9.882;2023-07-31T01:31:56;100106.28;;;15.77;100.00
43770;BME280;6597;52.218;9.882;2023-07-31T01:34:26;100103.00;;;15.73;100.00
43770;BME280;6597;52.218;9.882;2023-07-31T01:36:52;100100.34;;;15.73;100.00
43770;BME280;6597;52.218;9.882;2023-07-31T01:39:20;100103.09;;;15.72;100.00
43770;BME280;6597;52.218;9.882;2023-07-31T01:41:48;100098.03;;;15.69;100.00
43770;BME280;6597;52.218;9.882;2023-07-31T01:44:14;100093.69;;;15.68;100.00
43770;BME280;6597;52.218;9.882;2023-07-31T01:46:41;100096.44;;;15.66;100.00
43770;BME280;6597;52.218;9.882;2023-07-31T01:49:08;100096.63;;;15.63;100.00
43770;BME280;6597;52.218;9.882;2023-07-31T01:51:34;100085.94;;;15.65;100.00
43770;BME280;6597;52.218;9.882;2023-07-31T01:54:01;100083.31;;;15.65;100.00
43770;BME280;6597;52.218;9.882;2023-07-31T01:56:28;100083.09;;;15.68;100.00
43770;BME280;6597;52.218;9.882;2023-07-31T01:58:56;100078.75;;;15.67;100.00
43770;BME280;6597;52.218;9.882;2023-07-31T02:01:22;100085.84;;;15.66;100.00
43770;BME280;6597;52.218;9.882;2023-07-31T02:03:49;100080.75;;;15.63;100.00
43770;BME280;6597;52.218;9.882;2023-07-31T02:06:16;100076.41;;;15.62;100.00
43770;BME280;6597;52.218;9.882;2023-07-31T02:08:43;100076.50;;;15.61;100.00
43770;BME280;6597;52.218;9.882;2023-07-31T02:11:12;100075.56;;;15.62;100.00
43770;BME280;6597;52.218;9.882;2023-07-31T02:13:38;100074.72;;;15.61;100.00
43770;BME280;6597;52.218;9.882;2023-07-31T02:16:06;100066.59;;;15.64;100.00
43770;BME280;6597;52.218;9.882;2023-07-31T02:18:33;100070.19;;;15.63;100.00
43770;BME280;6597;52.218;9.882;2023-07-31T02:21:01;100064.03;;;15.63;100.00
43770;BME280;6597;52.218;9.882;2023-07-31T02:23:27;100061.41;;;15.63;100.00
43770;BME280;6597;52.218;9.882;2023-07-31T02:25:54;100056.84;;;15.65;100.00
43770;BME280;6597;52.218;9.882;2023-07-31T02:28:20;100050.72;;;15.64;100.00
43770;BME280;6597;52.218;9.882;2023-07-31T02:30:46;100049.00;;;15.63;100.00
43770;BME280;6597;52.218;9.882;2023-07-31T02:33:15;100048.06;;;15.64;100.00
43770;BME280;6597;52.218;9.882;2023-07-31T02:35:41;100055.91;;;15.66;100.00
43770;BME280;6597;52.218;9.882;2023-07-31T02:38:08;100058.44;;;15.67;100.00
43770;BME280;6597;52.218;9.882;2023-07-31T02:40:34;100055.69;;;15.69;100.00
43770;BME280;6597;52.218;9.882;2023-07-31T02:43:01;100047.00;;;15.67;100.00
43770;BME280;6597;52.218;9.882;2023-07-31T02:45:28;100049.34;;;15.71;100.00
43770;BME280;6597;52.218;9.882;2023-07-31T02:47:54;100048.28;;;15.74;100.00
43770;BME280;6597;52.218;9.882;2023-07-31T02:50:22;100052.63;;;15.75;100.00
43770;BME280;6597;52.218;9.882;2023-07-31T02:52:48;100042.47;;;15.69;100.00
43770;BME280;6597;52.218;9.882;2023-07-31T02:55:15;100045.09;;;15.69;100.00
43770;BME280;6597;52.218;9.882;2023-07-31T02:57:41;100038.97;;;15.68;100.00
43770;BME280;6597;52.218;9.882;2023-07-31T03:00:08;100042.34;;;15.70;100.00
43770;BME280;6597;52.218;9.882;2023-07-31T03:02:35;100044.25;;;15.68;100.00
43770;BME280;6597;52.218;9.882;2023-07-31T03:05:02;100048.59;;;15.69;100.00
43770;BME280;6597;52.218;9.882;2023-07-31T03:07:29;100047.75;;;15.69;100.00
43770;BME280;6597;52.218;9.882;2023-07-31T03:09:56;100052.19;;;15.68;100.00
43770;BME280;6597;52.218;9.882;2023-07-31T03:12:24;100038.97;;;15.68;100.00
43770;BME280;6597;52.218;9.882;2023-07-31T03:14:50;100042.56;;;15.67;100.00
43770;BME280;6597;52.218;9.882;2023-07-31T03:17:17;100037.25;;;15.67;100.00
43770;BME280;6597;52.218;9.882;2023-07-31T03:19:43;100044.25;;;15.68;100.00
43770;BME280;6597;52.218;9.882;2023-07-31T03:22:10;100040.66;;;15.69;100.00
43770;BME280;6597;52.218;9.882;2023-07-31T03:24:37;100046.25;;;15.65;100.00
43770;BME280;6597;52.218;9.882;2023-07-31T03:27:05;100055.03;;;15.65;100.00
43770;BME280;6597;52.218;9.882;2023-07-31T03:29:31;100048.91;;;15.65;100.00
43770;BME280;6597;52.218;9.882;2023-07-31T03:31:58;100040.97;;;15.65;100.00
43770;BME280;6597;52.218;9.882;2023-07-31T03:34:26;100048.06;;;15.64;100.00
43770;BME280;6597;52.218;9.882;2023-07-31T03:36:53;100051.75;;;15.62;100.00
43770;BME280;6597;52.218;9.882;2023-07-31T03:39:20;100052.84;;;15.57;100.00
43770;BME280;6597;52.218;9.882;2023-07-31T03:41:48;100052.97;;;15.56;100.00
43770;BME280;6597;52.218;9.882;2023-07-31T03:44:16;100052.22;;;15.54;100.00
43770;BME280;6597;52.218;9.882;2023-07-31T03:46:43;100060.47;;;15.49;100.00
43770;BME280;6597;52.218;9.882;2023-07-31T03:49:10;100067.84;;;15.44;100.00
43770;BME280;6597;52.218;9.882;2023-07-31T03:51:36;100068.91;;;15.42;100.00
43770;BME280;6597;52.218;9.882;2023-07-31T03:54:03;100070.06;;;15.38;100.00
43770;BME280;6597;52.218;9.882;2023-07-31T03:56:29;100066.97;;;15.31;100.00
43770;BME280;6597;52.218;9.882;2023-07-31T03:58:57;100060.38;;;15.24;100.00
43770;BME280;6597;52.218;9.882;2023-07-31T04:01:24;100054.44;;;15.20;100.00
43770;BME280;6597;52.218;9.882;2023-07-31T04:03:50;100058.88;;;15.20;100.00
43770;BME280;6597;52.218;9.882;2023-07-31T04:06:17;100052.94;;;15.16;100.00
43770;BME280;6597;52.218;9.882;2023-07-31T04:08:44;100056.66;;;15.14;100.00
43770;BME280;6597;52.218;9.882;2023-07-31T04:11:11;100041.84;;;15.11;100.00
43770;BME280;6597;52.218;9.882;2023-07-31T04:13:37;100055.25;;;15.08;100.00
43770;BME280;6597;52.218;9.882;2023-07-31T04:16:05;100054.59;;;15.05;100.00
43770;BME280;6597;52.218;9.882;2023-07-31T04:18:32;100040.84;;;15.00;100.00
43770;BME280;6597;52.218;9.882;2023-07-31T04:20:58;100041.03;;;14.97;100.00
43770;BME280;6597;52.218;9.882;2023-07-31T04:23:26;100039.25;;;14.97;100.00
43770;BME280;6597;52.218;9.882;2023-07-31T04:25:53;100037.56;;;14.96;100.00
43770;BME280;6597;52.218;9.882;2023-07-31T04:28:19;100041.22;;;14.93;100.00
43770;BME280;6597;52.218;9.882;2023-07-31T04:30:46;100036.97;;;14.91;100.00
43770;BME280;6597;52.218;9.882;2023-07-31T04:33:14;100030.09;;;14.88;100.00
43770;BME280;6597;52.218;9.882;2023-07-31T04:35:41;100035.47;;;14.87;100.00
43770;BME280;6597;52.218;9.882;2023-07-31T04:38:07;100032.09;;;14.85;100.00
43770;BME280;6597;52.218;9.882;2023-07-31T04:40:34;100035.69;;;14.84;100.00
43770;BME280;6597;52.218;9.882;2023-07-31T04:43:00;100029.09;;;14.77;100.00
43770;BME280;6597;52.218;9.882;2023-07-31T04:45:27;100026.44;;;14.77;100.00
43770;BME280;6597;52.218;9.882;2023-07-31T04:47:53;100030.03;;;14.76;100.00
43770;BME280;6597;52.218;9.882;2023-07-31T04:50:21;100028.34;;;14.75;100.00
43770;BME280;6597;52.218;9.882;2023-07-31T04:52:48;100031.00;;;14.75;100.00
43770;BME280;6597;52.218;9.882;2023-07-31T04:55:14;100017.78;;;14.75;100.00
43770;BME280;6597;52.218;9.882;2023-07-31T04:57:41;100027.41;;;14.76;100.00
43770;BME280;6597;52.218;9.882;2023-07-31T05:00:08;100024.84;;;14.74;100.00
43770;BME280;6597;52.218;9.882;2023-07-31T05:02:35;100022.13;;;14.76;100.00
43770;BME280;6597;52.218;9.882;2023-07-31T05:05:01;100010.59;;;14.77;100.00
43770;BME280;6597;52.218;9.882;2023-07-31T05:07:29;100012.31;;;14.78;100.00
43770;BME280;6597;52.218;9.882;2023-07-31T05:09:56;100012.19;;;14.79;100.00
43770;BME280;6597;52.218;9.882;2023-07-31T05:12:22;100000.44;;;14.71;100.00
43770;BME280;6597;52.218;9.882;2023-07-31T05:14:49;100006.63;;;14.84;100.00
43770;BME280;6597;52.218;9.882;2023-07-31T05:17:15;100000.28;;;14.86;100.00
43770;BME280;6597;52.218;9.882;2023-07-31T05:19:42;99998.59;;;14.85;100.00
43770;BME280;6597;52.218;9.882;2023-07-31T05:22:08;100002.72;;;14.89;100.00
43770;BME280;6597;52.218;9.882;2023-07-31T05:24:36;100010.56;;;14.91;100.00
43770;BME280;6597;52.218;9.882;2023-07-31T05:27:03;100000.56;;;14.96;100.00
43770;BME280;6597;52.218;9.882;2023-07-31T05:29:30;100005.75;;;14.98;100.00
43770;BME280;6597;52.218;9.882;2023-07-31T05:31:57;99999.41;;;15.00;100.00
43770;BME280;6597;52.218;9.882;2023-07-31T05:34:23;99993.06;;;15.03;100.00
43770;BME280;6597;52.218;9.882;2023-07-31T05:36:50;100000.91;;;15.04;100.00
43770;BME280;6597;52.218;9.882;2023-07-31T05:39:16;99994.56;;;15.07;100.00
43770;BME280;6597;52.218;9.882;2023-07-31T05:41:46;99994.25;;;15.11;100.00
43770;BME280;6597;52.218;9.882;2023-07-31T05:44:12;99994.16;;;15.13;100.00
43770;BME280;6597;52.218;9.882;2023-07-31T05:46:39;99992.25;;;15.15;100.00
43770;BME280;6597;52.218;9.882;2023-07-31T05:49:05;100000.63;;;15.21;100.00
43770;BME280;6597;52.218;9.882;2023-07-31T05:51:32;99978.38;;;15.11;100.00
43770;BME280;6597;52.218;9.882;2023-07-31T05:53:58;99987.41;;;15.21;100.00
43770;BME280;6597;52.218;9.882;2023-07-31T05:56:25;99995.13;;;15.24;100.00
43770;BME280;6597;52.218;9.882;2023-07-31T05:58:53;99995.75;;;15.28;100.00
43770;BME280;6597;52.218;9.882;2023-07-31T06:01:20;99994.84;;;15.29;100.00
43770;BME280;6597;52.218;9.882;2023-07-31T06:03:47;99991.34;;;15.29;100.00
43770;BME280;6597;52.218;9.882;2023-07-31T06:06:13;99990.41;;;15.30;100.00
43770;BME280;6597;52.218;9.882;2023-07-31T06:08:40;99984.91;;;15.33;100.00
43770;BME280;6597;52.218;9.882;2023-07-31T06:11:07;99983.94;;;15.34;100.00
43770;BME280;6597;52.218;9.882;2023-07-31T06:13:34;99987.44;;;15.34;100.00
43770;BME280;6597;52.218;9.882;2023-07-31T06:16:02;99982.38;;;15.31;100.00
43770;BME280;6597;52.218;9.882;2023-07-31T06:18:30;99980.56;;;15.32;100.00
43770;BME280;6597;52.218;9.882;2023-07-31T06:20:57;99987.34;;;15.36;100.00
43770;BME280;6597;52.218;9.882;2023-07-31T06:23:24;99983.66;;;15.38;100.00
43770;BME280;6597;52.218;9.882;2023-07-31T06:25:50;99986.94;;;15.42;100.00
43770;BME280;6597;52.218;9.882;2023-07-31T06:28:17;99985.03;;;15.44;100.00
43770;BME280;6597;52.218;9.882;2023-07-31T06:30:43;99998.03;;;15.47;100.00
43770;BME280;6597;52.218;9.882;2023-07-31T06:33:11;99993.28;;;15.52;100.00
43770;BME280;6597;52.218;9.882;2023-07-31T06:35:38;99987.88;;;15.53;100.00
43770;BME280;6597;52.218;9.882;2023-07-31T06:38:05;99987.03;;;15.53;100.00
43770;BME280;6597;52.218;9.882;2023-07-31T06:40:31;99992.53;;;15.50;100.00
43770;BME280;6597;52.218;9.882;2023-07-31T06:42:58;99991.78;;;15.48;100.00
43770;BME280;6597;52.218;9.882;2023-07-31T06:45:24;99992.75;;;15.47;100.00
43770;BME280;6597;52.218;9.882;2023-07-31T06:47:51;99985.56;;;15.49;100.00
43770;BME280;6597;52.218;9.882;2023-07-31T06:50:18;99986.59;;;15.46;100.00
43770;BME280;6597;52.218;9.882;2023-07-31T06:52:45;99993.50;;;15.49;100.00
43770;BME280;6597;52.218;9.882;2023-07-31T06:55:19;99993.59;;;15.47;100.00
43770;BME280;6597;52.218;9.882;2023-07-31T06:57:47;99991.38;;;15.54;100.00
43770;BME280;6597;52.218;9.882;2023-07-31T07:00:14;99984.41;;;15.53;100.00
43770;BME280;6597;52.218;9.882;2023-07-31T07:02:40;99991.28;;;15.55;100.00
43770;BME280;6597;52.218;9.882;2023-07-31T07:05:07;99986.09;;;15.54;100.00
43770;BME280;6597;52.218;9.882;2023-07-31T07:07:36;99982.50;;;15.55;100.00
43770;BME280;6597;52.218;9.882;2023-07-31T07:10:03;99992.31;;;15.53;100.00
43770;BME280;6597;52.218;9.882;2023-07-31T07:12:31;99982.59;;;15.53;100.00
43770;BME280;6597;52.218;9.882;2023-07-31T07:14:58;99983.66;;;15.51;100.00
43770;BME280;6597;52.218;9.882;2023-07-31T07:17:24;99987.34;;;15.48;100.00
43770;BME280;6597;52.218;9.882;2023-07-31T07:19:51;99974.97;;;15.49;100.00
43770;BME280;6597;52.218;9.882;2023-07-31T07:22:18;99969.56;;;15.50;100.00
43770;BME280;6597;52.218;9.882;2023-07-31T07:24:45;99972.13;;;15.52;100.00
43770;BME280;6597;52.218;9.882;2023-07-31T07:27:12;99979.84;;;15.55;100.00
43770;BME280;6597;52.218;9.882;2023-07-31T07:29:38;99979.75;;;15.56;100.00
43770;BME280;6597;52.218;9.882;2023-07-31T07:32:06;99976.91;;;15.60;100.00
43770;BME280;6597;52.218;9.882;2023-07-31T07:34:33;99969.53;;;15.65;100.00
43770;BME280;6597;52.218;9.882;2023-07-31T07:36:59;99970.28;;;15.67;100.00
43770;BME280;6597;52.218;9.882;2023-07-31T07:39:26;99969.00;;;15.72;100.00
43770;BME280;6597;52.218;9.882;2023-07-31T07:41:54;99970.59;;;15.75;100.00
43770;BME280;6597;52.218;9.882;2023-07-31T07:44:20;99979.16;;;15.78;100.00
43770;BME280;6597;52.218;9.882;2023-07-31T07:46:47;99981.47;;;15.83;100.00
43770;BME280;6597;52.218;9.882;2023-07-31T07:49:13;99986.66;;;15.84;100.00
43770;BME280;6597;52.218;9.882;2023-07-31T07:51:40;99989.94;;;15.88;100.00
43770;BME280;6597;52.218;9.882;2023-07-31T07:54:06;99987.31;;;15.88;100.00
43770;BME280;6597;52.218;9.882;2023-07-31T07:56:33;99998.72;;;15.88;100.00
43770;BME280;6597;52.218;9.882;2023-07-31T07:59:02;100000.44;;;15.90;100.00
43770;BME280;6597;52.218;9.882;2023-07-31T08:01:29;99999.28;;;15.94;100.00
43770;BME280;6597;52.218;9.882;2023-07-31T08:03:55;99987.94;;;15.92;100.00
43770;BME280;6597;52.218;9.882;2023-07-31T08:06:22;99975.47;;;15.94;100.00
43770;BME280;6597;52.218;9.882;2023-07-31T08:08:49;99992.38;;;15.91;100.00
43770;BME280;6597;52.218;9.882;2023-07-31T08:11:16;99985.19;;;15.93;100.00
43770;BME280;6597;52.218;9.882;2023-07-31T08:13:42;99986.78;;;15.96;100.00
43770;BME280;6597;52.218;9.882;2023-07-31T08:16:10;99990.06;;;15.99;100.00
43770;BME280;6597;52.218;9.882;2023-07-31T08:18:37;99989.13;;;16.00;100.00
43770;BME280;6597;52.218;9.882;2023-07-31T08:21:03;99993.34;;;16.03;100.00
43770;BME280;6597;52.218;9.882;2023-07-31T08:23:30;99982.31;;;16.09;100.00
43770;BME280;6597;52.218;9.882;2023-07-31T08:25:56;99988.03;;;16.15;100.00
43770;BME280;6597;52.218;9.882;2023-07-31T08:28:23;99987.47;;;16.23;100.00
43770;BME280;6597;52.218;9.882;2023-07-31T08:30:49;99975.63;;;16.29;100.00
43770;BME280;6597;52.218;9.882;2023-07-31T08:33:18;99979.25;;;16.28;100.00
43770;BME280;6597;52.218;9.882;2023-07-31T08:35:44;99972.13;;;16.28;100.00
43770;BME280;6597;52.218;9.882;2023-07-31T08:38:12;99976.47;;;16.29;100.00
43770;BME280;6597;52.218;9.882;2023-07-31T08:40:38;99978.19;;;16.30;100.00
43770;BME280;6597;52.218;9.882;2023-07-31T08:43:06;99971.81;;;16.33;100.00
43770;BME280;6597;52.218;9.882;2023-07-31T08:45:33;99965.66;;;16.32;100.00
43770;BME280;6597;52.218;9.882;2023-07-31T08:48:00;99967.13;;;16.36;100.00
43770;BME280;6597;52.218;9.882;2023-07-31T08:50:29;99964.59;;;16.35;100.00
43770;BME280;6597;52.218;9.882;2023-07-31T08:52:56;99964.59;;;16.35;100.00
43770;BME280;6597;52.218;9.882;2023-07-31T08:55:22;99971.06;;;16.31;100.00
43770;BME280;6597;52.218;9.882;2023-07-31T08:57:51;99955.69;;;16.23;100.00
43770;BME280;6597;52.218;9.882;2023-07-31T09:00:19;99963.97;;;16.18;100.00
43770;BME280;6597;52.218;9.882;2023-07-31T09:02:56;99949.38;;;16.13;100.00
43770;BME280;6597;52.218;9.882;2023-07-31T09:05:26;99954.69;;;16.13;100.00
43770;BME280;6597;52.218;9.882;2023-07-31T09:07:55;99949.38;;;16.13;100.00
43770;BME280;6597;52.218;9.882;2023-07-31T09:10:23;99949.38;;;16.13;100.00
43770;BME280;6597;52.218;9.882;2023-07-31T09:12:51;99953.38;;;16.18;100.00
43770;BME280;6597;52.218;9.882;2023-07-31T09:15:18;99944.16;;;16.24;100.00
43770;BME280;6597;52.218;9.882;2023-07-31T09:17:45;99947.34;;;16.29;100.00
43770;BME280;6597;52.218;9.882;2023-07-31T09:20:16;99939.28;;;16.31;100.00
43770;BME280;6597;52.218;9.882;2023-07-31T09:22:44;99942.34;;;16.37;100.00
43770;BME280;6597;52.218;9.882;2023-07-31T09:25:19;99935.13;;;16.39;100.00
43770;BME280;6597;52.218;9.882;2023-07-31T09:27:46;99940.19;;;16.42;100.00
43770;BME280;6597;52.218;9.882;2023-07-31T09:30:13;99937.78;;;16.39;100.00
43770;BME280;6597;52.218;9.882;2023-07-31T09:32:39;99936.31;;;16.35;100.00
43770;BME280;6597;52.218;9.882;2023-07-31T09:35:13;99931.00;;;16.35;100.00
43770;BME280;6597;52.218;9.882;2023-07-31T09:37:40;99927.53;;;16.35;100.00
43770;BME280;6597;52.218;9.882;2023-07-31T09:40:07;99923.81;;;16.37;100.00
43770;BME280;6597;52.218;9.882;2023-07-31T09:42:35;99934.16;;;16.40;100.00
43770;BME280;6597;52.218;9.882;2023-07-31T09:45:09;99923.91;;;16.36;100.00
43770;BME280;6597;52.218;9.882;2023-07-31T09:47:36;99922.84;;;16.38;100.00
43770;BME280;6597;52.218;9.882;2023-07-31T09:50:07;99919.00;;;16.42;100.00
43770;BME280;6597;52.218;9.882;2023-07-31T09:52:34;99924.94;;;16.46;100.00
43770;BME280;6597;52.218;9.882;2023-07-31T09:55:04;99921.53;;;16.44;100.00
43770;BME280;6597;52.218;9.882;2023-07-31T09:57:31;99919.75;;;16.44;100.00
43770;BME280;6597;52.218;9.882;2023-07-31T10:00:00;99912.41;;;16.48;100.00
43770;BME280;6597;52.218;9.882;2023-07-31T10:02:37;99907.75;;;16.52;100.00
43770;BME280;6597;52.218;9.882;2023-07-31T10:05:05;99900.75;;;16.50;100.00
43770;BME280;6597;52.218;9.882;2023-07-31T10:07:36;99901.97;;;16.58;100.00
43770;BME280;6597;52.218;9.882;2023-07-31T10:10:07;99903.38;;;16.63;100.00
43770;BME280;6597;52.218;9.882;2023-07-31T10:12:35;99900.56;;;16.77;100.00
43770;BME280;6597;52.218;9.882;2023-07-31T10:15:05;99900.72;;;16.87;100.00
43770;BME280;6597;52.218;9.882;2023-07-31T10:17:33;99893.28;;;16.92;100.00
43770;BME280;6597;52.218;9.882;2023-07-31T10:20:07;99900.31;;;17.04;100.00
43770;BME280;6597;52.218;9.882;2023-07-31T10:22:34;99894.53;;;17.10;100.00
43770;BME280;6597;52.218;9.882;2023-07-31T10:25:01;99897.69;;;17.16;100.00
43770;BME280;6597;52.218;9.882;2023-07-31T10:27:28;99888.06;;;17.26;100.00
43770;BME280;6597;52.218;9.882;2023-07-31T10:29:56;99893.16;;;17.29;100.00
43770;BME280;6597;52.218;9.882;2023-07-31T10:32:25;99891.47;;;17.39;100.00
43770;BME280;6597;52.218;9.882;2023-07-31T10:34:53;99893.16;;;17.51;100.00
43770;BME280;6597;52.218;9.882;2023-07-31T10:37:22;99887.16;;;17.60;100.00
43770;BME280;6597;52.218;9.882;2023-07-31T10:39:57;99879.19;;;17.60;100.00
43770;BME280;6597;52.218;9.882;2023-07-31T10:42:28;99872.81;;;17.63;100.00
43770;BME280;6597;52.218;9.882;2023-07-31T10:44:57;99871.16;;;17.73;100.00
43770;BME280;6597;52.218;9.882;2023-07-31T10:47:26;99874.75;;;17.94;100.00
43770;BME280;6597;52.218;9.882;2023-07-31T10:49:52;99860.59;;;18.16;100.00
43770;BME280;6597;52.218;9.882;2023-07-31T10:52:20;99859.44;;;18.41;100.00
43770;BME280;6597;52.218;9.882;2023-07-31T10:54:49;99856.13;;;18.60;100.00
43770;BME280;6597;52.218;9.882;2023-07-31T10:57:20;99857.94;;;18.71;100.00
43770;BME280;6597;52.218;9.882;2023-07-31T10:59:47;99843.13;;;18.89;100.00
43770;BME280;6597;52.218;9.882;2023-07-31T11:02:24;99842.19;;;19.00;100.00
43770;BME280;6597;52.218;9.882;2023-07-31T11:05:08;99840.88;;;19.15;100.00
43770;BME280;6597;52.218;9.882;2023-07-31T11:07:47;99847.97;;;19.25;100.00
43770;BME280;6597;52.218;9.882;2023-07-31T11:10:16;99845.31;;;19.25;100.00
43770;BME280;6597;52.218;9.882;2023-07-31T11:12:45;99848.25;;;19.22;99.56
43770;BME280;6597;52.218;9.882;2023-07-31T11:15:11;99848.59;;;19.18;99.08
43770;BME280;6597;52.218;9.882;2023-07-31T11:17:38;99838.69;;;19.20;100.00
43770;BME280;6597;52.218;9.882;2023-07-31T11:20:07;99838.94;;;19.17;100.00
43770;BME280;6597;52.218;9.882;2023-07-31T11:22:36;99852.09;;;19.18;100.00
43770;BME280;6597;52.218;9.882;2023-07-31T11:25:04;99843.81;;;19.12;100.00
43770;BME280;6597;52.218;9.882;2023-07-31T11:27:30;99830.19;;;19.05;100.00
43770;BME280;6597;52.218;9.882;2023-07-31T11:30:00;99838.81;;;18.98;99.99
43770;BME280;6597;52.218;9.882;2023-07-31T11:32:28;99841.44;;;18.88;100.00
43770;BME280;6597;52.218;9.882;2023-07-31T11:34:55;99837.44;;;18.82;100.00
43770;BME280;6597;52.218;9.882;2023-07-31T11:37:23;99832.25;;;18.81;100.00
43770;BME280;6597;52.218;9.882;2023-07-31T11:39:59;99841.91;;;18.82;100.00
43770;BME280;6597;52.218;9.882;2023-07-31T11:42:26;99834.66;;;18.84;100.00
43770;BME280;6597;52.218;9.882;2023-07-31T11:44:52;99828.38;;;18.85;100.00
43770;BME280;6597;52.218;9.882;2023-07-31T11:47:19;99827.03;;;18.90;100.00
43770;BME280;6597;52.218;9.882;2023-07-31T11:49:47;99826.38;;;18.98;100.00
43770;BME280;6597;52.218;9.882;2023-07-31T11:52:15;99822.44;;;18.92;100.00
43770;BME280;6597;52.218;9.882;2023-07-31T11:54:43;99822.44;;;18.92;100.00
43770;BME280;6597;52.218;9.882;2023-07-31T11:57:10;99815.88;;;18.96;100.00
43770;BME280;6597;52.218;9.882;2023-07-31T11:59:40;99813.78;;;19.00;100.00
43770;BME280;6597;52.218;9.882;2023-07-31T12:02:08;99804.84;;;19.01;100.00
43770;BME280;6597;52.218;9.882;2023-07-31T12:04:35;99802.03;;;19.03;100.00
43770;BME280;6597;52.218;9.882;2023-07-31T12:07:02;99818.25;;;19.00;100.00
43770;BME280;6597;52.218;9.882;2023-07-31T12:09:29;99815.88;;;18.96;100.00
43770;BME280;6597;52.218;9.882;2023-07-31T12:11:57;99812.22;;;18.98;100.00
43770;BME280;6597;52.218;9.882;2023-07-31T12:14:25;99806.91;;;18.98;100.00
43770;BME280;6597;52.218;9.882;2023-07-31T12:16:56;99806.00;;;18.87;100.00
43770;BME280;6597;52.218;9.882;2023-07-31T12:19:23;99814.22;;;18.84;100.00
43770;BME280;6597;52.218;9.882;2023-07-31T12:21:53;99813.66;;;18.81;100.00
43770;BME280;6597;52.218;9.882;2023-07-31T12:24:20;99808.19;;;18.82;100.00
43770;BME280;6597;52.218;9.882;2023-07-31T12:26:47;99818.13;;;18.80;100.00
43770;BME280;6597;52.218;9.882;2023-07-31T12:29:16;99812.66;;;18.82;100.00
43770;BME280;6597;52.218;9.882;2023-07-31T12:31:42;99807.34;;;18.82;100.00
43770;BME280;6597;52.218;9.882;2023-07-31T12:34:15;99804.69;;;18.82;100.00
43770;BME280;6597;52.218;9.882;2023-07-31T12:36:43;99809.88;;;18.83;100.00
43770;BME280;6597;52.218;9.882;2023-07-31T12:39:09;99806.38;;;18.83;100.00
43770;BME280;6597;52.218;9.882;2023-07-31T12:41:36;99814.34;;;18.83;100.00
43770;BME280;6597;52.218;9.882;2023-07-31T12:44:02;99808.13;;;18.73;100.00
43770;BME280;6597;52.218;9.882;2023-07-31T12:46:30;99802.50;;;18.66;100.00
43770;BME280;6597;52.218;9.882;2023-07-31T12:48:57;99805.63;;;18.60;100.00
43770;BME280;6597;52.218;9.882;2023-07-31T12:51:23;99802.41;;;18.56;100.00
43770;BME280;6597;52.218;9.882;2023-07-31T12:53:50;99796.25;;;18.56;100.00
43770;BME280;6597;52.218;9.882;2023-07-31T12:56:16;99790.91;;;18.56;100.00
43770;BME280;6597;52.218;9.882;2023-07-31T12:58:43;99789.41;;;18.74;100.00